<?xml version="1.0" encoding="UTF-8" standalone="no" ?>
<gpx xmlns="http://www.topografix.com/GPX/1/1" xmlns:xsi="http://www.w3.org/2001/XMLSchema-instance" xsi:schemaLocation="http://www.topografix.com/GPX/1/1 http://www.topografix.com/GPX/1/1/gpx.xsd" version="1.1" creator="VisuGPX - https://www.visugpx.com">
  <metadata>
    <name>Course à pied en soirée</name>
  </metadata>
  <trk>
    <name><![CDATA[Course à pied en soirée_1]]></name>
    <trkseg>
      <trkpt lat="48.71143" lon="7.16312">
        <ele>316.7</ele>
        <time>2023-09-22T16:14:23Z</time>
      </trkpt>
      <trkpt lat="48.71146" lon="7.16285">
        <ele>317</ele>
        <time>2023-09-22T16:14:31Z</time>
      </trkpt>
      <trkpt lat="48.7113" lon="7.16265">
        <ele>317.2</ele>
        <time>2023-09-22T16:14:38Z</time>
      </trkpt>
      <trkpt lat="48.71116" lon="7.16248">
        <ele>317.3</ele>
        <time>2023-09-22T16:14:44Z</time>
      </trkpt>
      <trkpt lat="48.71103" lon="7.16229">
        <ele>317.4</ele>
        <time>2023-09-22T16:14:50Z</time>
      </trkpt>
      <trkpt lat="48.71087" lon="7.16209">
        <ele>317.7</ele>
        <time>2023-09-22T16:14:57Z</time>
      </trkpt>
      <trkpt lat="48.7107" lon="7.16191">
        <ele>317.9</ele>
        <time>2023-09-22T16:15:04Z</time>
      </trkpt>
      <trkpt lat="48.71052" lon="7.16178">
        <ele>318</ele>
        <time>2023-09-22T16:15:11Z</time>
      </trkpt>
      <trkpt lat="48.71034" lon="7.16173">
        <ele>318.2</ele>
        <time>2023-09-22T16:15:18Z</time>
      </trkpt>
      <trkpt lat="48.71015" lon="7.16168">
        <ele>318.3</ele>
        <time>2023-09-22T16:15:25Z</time>
      </trkpt>
      <trkpt lat="48.70997" lon="7.16164">
        <ele>318.6</ele>
        <time>2023-09-22T16:15:32Z</time>
      </trkpt>
      <trkpt lat="48.70978" lon="7.16163">
        <ele>319</ele>
        <time>2023-09-22T16:15:39Z</time>
      </trkpt>
      <trkpt lat="48.7096" lon="7.16157">
        <ele>319.6</ele>
        <time>2023-09-22T16:15:46Z</time>
      </trkpt>
      <trkpt lat="48.70941" lon="7.16151">
        <ele>320.2</ele>
        <time>2023-09-22T16:15:54Z</time>
      </trkpt>
      <trkpt lat="48.70923" lon="7.16149">
        <ele>320.9</ele>
        <time>2023-09-22T16:16:01Z</time>
      </trkpt>
      <trkpt lat="48.70904" lon="7.16144">
        <ele>321.6</ele>
        <time>2023-09-22T16:16:08Z</time>
      </trkpt>
      <trkpt lat="48.70884" lon="7.16139">
        <ele>322.4</ele>
        <time>2023-09-22T16:16:16Z</time>
      </trkpt>
      <trkpt lat="48.70865" lon="7.16131">
        <ele>323.2</ele>
        <time>2023-09-22T16:16:24Z</time>
      </trkpt>
      <trkpt lat="48.70846" lon="7.16127">
        <ele>324</ele>
        <time>2023-09-22T16:16:31Z</time>
      </trkpt>
      <trkpt lat="48.70828" lon="7.16129">
        <ele>324.7</ele>
        <time>2023-09-22T16:16:38Z</time>
      </trkpt>
      <trkpt lat="48.70813" lon="7.16149">
        <ele>326.7</ele>
        <time>2023-09-22T16:16:46Z</time>
      </trkpt>
      <trkpt lat="48.70798" lon="7.1617">
        <ele>328.3</ele>
        <time>2023-09-22T16:16:55Z</time>
      </trkpt>
      <trkpt lat="48.70786" lon="7.1619">
        <ele>329.9</ele>
        <time>2023-09-22T16:17:03Z</time>
      </trkpt>
      <trkpt lat="48.70775" lon="7.16212">
        <ele>331.4</ele>
        <time>2023-09-22T16:17:11Z</time>
      </trkpt>
      <trkpt lat="48.70763" lon="7.16234">
        <ele>333.2</ele>
        <time>2023-09-22T16:17:19Z</time>
      </trkpt>
      <trkpt lat="48.7075" lon="7.16258">
        <ele>335.2</ele>
        <time>2023-09-22T16:17:28Z</time>
      </trkpt>
      <trkpt lat="48.70738" lon="7.16282">
        <ele>337.2</ele>
        <time>2023-09-22T16:17:37Z</time>
      </trkpt>
      <trkpt lat="48.70725" lon="7.16305">
        <ele>339</ele>
        <time>2023-09-22T16:17:45Z</time>
      </trkpt>
      <trkpt lat="48.70712" lon="7.16328">
        <ele>340.8</ele>
        <time>2023-09-22T16:17:53Z</time>
      </trkpt>
      <trkpt lat="48.707" lon="7.1635">
        <ele>342.5</ele>
        <time>2023-09-22T16:18:00Z</time>
      </trkpt>
      <trkpt lat="48.70688" lon="7.16373">
        <ele>344.2</ele>
        <time>2023-09-22T16:18:08Z</time>
      </trkpt>
      <trkpt lat="48.70676" lon="7.16396">
        <ele>345.9</ele>
        <time>2023-09-22T16:18:16Z</time>
      </trkpt>
      <trkpt lat="48.70664" lon="7.1642">
        <ele>347.5</ele>
        <time>2023-09-22T16:18:24Z</time>
      </trkpt>
      <trkpt lat="48.70652" lon="7.16442">
        <ele>348.4</ele>
        <time>2023-09-22T16:18:31Z</time>
      </trkpt>
      <trkpt lat="48.7064" lon="7.16464">
        <ele>349.2</ele>
        <time>2023-09-22T16:18:38Z</time>
      </trkpt>
      <trkpt lat="48.70627" lon="7.16486">
        <ele>350.1</ele>
        <time>2023-09-22T16:18:45Z</time>
      </trkpt>
      <trkpt lat="48.70614" lon="7.16508">
        <ele>351.2</ele>
        <time>2023-09-22T16:18:52Z</time>
      </trkpt>
      <trkpt lat="48.70603" lon="7.1653">
        <ele>352.1</ele>
        <time>2023-09-22T16:18:59Z</time>
      </trkpt>
      <trkpt lat="48.70589" lon="7.1655">
        <ele>353</ele>
        <time>2023-09-22T16:19:06Z</time>
      </trkpt>
      <trkpt lat="48.70577" lon="7.16571">
        <ele>353.7</ele>
        <time>2023-09-22T16:19:13Z</time>
      </trkpt>
      <trkpt lat="48.70565" lon="7.16592">
        <ele>354.5</ele>
        <time>2023-09-22T16:19:20Z</time>
      </trkpt>
      <trkpt lat="48.70552" lon="7.16614">
        <ele>355.3</ele>
        <time>2023-09-22T16:19:27Z</time>
      </trkpt>
      <trkpt lat="48.70538" lon="7.16634">
        <ele>355.9</ele>
        <time>2023-09-22T16:19:34Z</time>
      </trkpt>
      <trkpt lat="48.70524" lon="7.16656">
        <ele>356.5</ele>
        <time>2023-09-22T16:19:41Z</time>
      </trkpt>
      <trkpt lat="48.70511" lon="7.16679">
        <ele>356.6</ele>
        <time>2023-09-22T16:19:48Z</time>
      </trkpt>
      <trkpt lat="48.70501" lon="7.16701">
        <ele>356.3</ele>
        <time>2023-09-22T16:19:55Z</time>
      </trkpt>
      <trkpt lat="48.70488" lon="7.16724">
        <ele>355.9</ele>
        <time>2023-09-22T16:20:02Z</time>
      </trkpt>
      <trkpt lat="48.70476" lon="7.16747">
        <ele>355.3</ele>
        <time>2023-09-22T16:20:09Z</time>
      </trkpt>
      <trkpt lat="48.70462" lon="7.16769">
        <ele>354.5</ele>
        <time>2023-09-22T16:20:16Z</time>
      </trkpt>
      <trkpt lat="48.70447" lon="7.1679">
        <ele>354</ele>
        <time>2023-09-22T16:20:23Z</time>
      </trkpt>
      <trkpt lat="48.70433" lon="7.16811">
        <ele>353.7</ele>
        <time>2023-09-22T16:20:30Z</time>
      </trkpt>
      <trkpt lat="48.70417" lon="7.1683">
        <ele>353.7</ele>
        <time>2023-09-22T16:20:37Z</time>
      </trkpt>
      <trkpt lat="48.70402" lon="7.16849">
        <ele>353.6</ele>
        <time>2023-09-22T16:20:44Z</time>
      </trkpt>
      <trkpt lat="48.70387" lon="7.16863">
        <ele>353.8</ele>
        <time>2023-09-22T16:20:51Z</time>
      </trkpt>
      <trkpt lat="48.7037" lon="7.16875">
        <ele>354.2</ele>
        <time>2023-09-22T16:20:58Z</time>
      </trkpt>
      <trkpt lat="48.70352" lon="7.16887">
        <ele>355</ele>
        <time>2023-09-22T16:21:06Z</time>
      </trkpt>
      <trkpt lat="48.70334" lon="7.16898">
        <ele>356.2</ele>
        <time>2023-09-22T16:21:14Z</time>
      </trkpt>
      <trkpt lat="48.70317" lon="7.16908">
        <ele>357.7</ele>
        <time>2023-09-22T16:21:22Z</time>
      </trkpt>
      <trkpt lat="48.703" lon="7.16918">
        <ele>359.3</ele>
        <time>2023-09-22T16:21:30Z</time>
      </trkpt>
      <trkpt lat="48.70282" lon="7.16931">
        <ele>360.9</ele>
        <time>2023-09-22T16:21:38Z</time>
      </trkpt>
      <trkpt lat="48.70264" lon="7.16943">
        <ele>362.4</ele>
        <time>2023-09-22T16:21:46Z</time>
      </trkpt>
      <trkpt lat="48.70246" lon="7.16957">
        <ele>363.8</ele>
        <time>2023-09-22T16:21:54Z</time>
      </trkpt>
      <trkpt lat="48.70229" lon="7.16972">
        <ele>364.9</ele>
        <time>2023-09-22T16:22:02Z</time>
      </trkpt>
      <trkpt lat="48.70212" lon="7.16985">
        <ele>365.7</ele>
        <time>2023-09-22T16:22:10Z</time>
      </trkpt>
      <trkpt lat="48.70195" lon="7.16999">
        <ele>366.8</ele>
        <time>2023-09-22T16:22:18Z</time>
      </trkpt>
      <trkpt lat="48.70178" lon="7.17011">
        <ele>368.1</ele>
        <time>2023-09-22T16:22:26Z</time>
      </trkpt>
      <trkpt lat="48.7016" lon="7.17023">
        <ele>369.6</ele>
        <time>2023-09-22T16:22:34Z</time>
      </trkpt>
      <trkpt lat="48.70143" lon="7.17036">
        <ele>371.2</ele>
        <time>2023-09-22T16:22:42Z</time>
      </trkpt>
      <trkpt lat="48.70132" lon="7.17061">
        <ele>372.9</ele>
        <time>2023-09-22T16:22:50Z</time>
      </trkpt>
      <trkpt lat="48.7012" lon="7.1708">
        <ele>374.2</ele>
        <time>2023-09-22T16:22:57Z</time>
      </trkpt>
      <trkpt lat="48.70103" lon="7.17096">
        <ele>375.6</ele>
        <time>2023-09-22T16:23:04Z</time>
      </trkpt>
      <trkpt lat="48.70087" lon="7.17112">
        <ele>377.1</ele>
        <time>2023-09-22T16:23:12Z</time>
      </trkpt>
      <trkpt lat="48.70072" lon="7.17128">
        <ele>378.6</ele>
        <time>2023-09-22T16:23:19Z</time>
      </trkpt>
      <trkpt lat="48.70057" lon="7.17144">
        <ele>380.1</ele>
        <time>2023-09-22T16:23:26Z</time>
      </trkpt>
      <trkpt lat="48.70041" lon="7.17158">
        <ele>381.8</ele>
        <time>2023-09-22T16:23:33Z</time>
      </trkpt>
      <trkpt lat="48.70023" lon="7.17174">
        <ele>383.6</ele>
        <time>2023-09-22T16:23:41Z</time>
      </trkpt>
      <trkpt lat="48.70007" lon="7.17192">
        <ele>385.4</ele>
        <time>2023-09-22T16:23:49Z</time>
      </trkpt>
      <trkpt lat="48.69992" lon="7.17211">
        <ele>387</ele>
        <time>2023-09-22T16:23:57Z</time>
      </trkpt>
      <trkpt lat="48.69978" lon="7.17229">
        <ele>388.6</ele>
        <time>2023-09-22T16:24:04Z</time>
      </trkpt>
      <trkpt lat="48.69964" lon="7.17247">
        <ele>389.9</ele>
        <time>2023-09-22T16:24:11Z</time>
      </trkpt>
      <trkpt lat="48.69951" lon="7.17267">
        <ele>391</ele>
        <time>2023-09-22T16:24:18Z</time>
      </trkpt>
      <trkpt lat="48.69937" lon="7.17287">
        <ele>392.1</ele>
        <time>2023-09-22T16:24:26Z</time>
      </trkpt>
      <trkpt lat="48.69921" lon="7.17304">
        <ele>393.2</ele>
        <time>2023-09-22T16:24:35Z</time>
      </trkpt>
      <trkpt lat="48.69908" lon="7.17324">
        <ele>394</ele>
        <time>2023-09-22T16:24:42Z</time>
      </trkpt>
      <trkpt lat="48.69894" lon="7.17345">
        <ele>395.1</ele>
        <time>2023-09-22T16:24:49Z</time>
      </trkpt>
      <trkpt lat="48.6988" lon="7.17366">
        <ele>396.3</ele>
        <time>2023-09-22T16:24:56Z</time>
      </trkpt>
      <trkpt lat="48.69865" lon="7.17387">
        <ele>397.5</ele>
        <time>2023-09-22T16:25:03Z</time>
      </trkpt>
      <trkpt lat="48.69855" lon="7.17393">
        <ele>398</ele>
        <time>2023-09-22T16:25:08Z</time>
      </trkpt>
      <trkpt lat="48.69844" lon="7.1737">
        <ele>398</ele>
        <time>2023-09-22T16:25:15Z</time>
      </trkpt>
      <trkpt lat="48.69833" lon="7.17344">
        <ele>398</ele>
        <time>2023-09-22T16:25:22Z</time>
      </trkpt>
      <trkpt lat="48.69822" lon="7.17321">
        <ele>397.8</ele>
        <time>2023-09-22T16:25:29Z</time>
      </trkpt>
      <trkpt lat="48.69812" lon="7.17298">
        <ele>397.5</ele>
        <time>2023-09-22T16:25:37Z</time>
      </trkpt>
      <trkpt lat="48.69801" lon="7.17276">
        <ele>397.1</ele>
        <time>2023-09-22T16:25:45Z</time>
      </trkpt>
      <trkpt lat="48.69794" lon="7.17246">
        <ele>396.3</ele>
        <time>2023-09-22T16:25:53Z</time>
      </trkpt>
      <trkpt lat="48.69786" lon="7.17223">
        <ele>395.6</ele>
        <time>2023-09-22T16:25:59Z</time>
      </trkpt>
      <trkpt lat="48.69779" lon="7.17193">
        <ele>394.9</ele>
        <time>2023-09-22T16:26:06Z</time>
      </trkpt>
      <trkpt lat="48.69776" lon="7.17163">
        <ele>394.1</ele>
        <time>2023-09-22T16:26:13Z</time>
      </trkpt>
      <trkpt lat="48.6977" lon="7.17134">
        <ele>393.3</ele>
        <time>2023-09-22T16:26:20Z</time>
      </trkpt>
      <trkpt lat="48.69765" lon="7.17105">
        <ele>392.6</ele>
        <time>2023-09-22T16:26:27Z</time>
      </trkpt>
      <trkpt lat="48.69757" lon="7.17079">
        <ele>392</ele>
        <time>2023-09-22T16:26:33Z</time>
      </trkpt>
      <trkpt lat="48.69749" lon="7.1705">
        <ele>391.2</ele>
        <time>2023-09-22T16:26:40Z</time>
      </trkpt>
      <trkpt lat="48.69741" lon="7.17022">
        <ele>390.6</ele>
        <time>2023-09-22T16:26:47Z</time>
      </trkpt>
      <trkpt lat="48.69733" lon="7.16996">
        <ele>390</ele>
        <time>2023-09-22T16:26:53Z</time>
      </trkpt>
      <trkpt lat="48.69726" lon="7.16968">
        <ele>389.4</ele>
        <time>2023-09-22T16:26:59Z</time>
      </trkpt>
      <trkpt lat="48.69717" lon="7.16942">
        <ele>388.6</ele>
        <time>2023-09-22T16:27:05Z</time>
      </trkpt>
      <trkpt lat="48.69703" lon="7.1692">
        <ele>388</ele>
        <time>2023-09-22T16:27:12Z</time>
      </trkpt>
      <trkpt lat="48.69686" lon="7.16908">
        <ele>387.7</ele>
        <time>2023-09-22T16:27:19Z</time>
      </trkpt>
      <trkpt lat="48.69667" lon="7.16898">
        <ele>387.4</ele>
        <time>2023-09-22T16:27:26Z</time>
      </trkpt>
      <trkpt lat="48.6965" lon="7.16884">
        <ele>387.1</ele>
        <time>2023-09-22T16:27:33Z</time>
      </trkpt>
      <trkpt lat="48.69633" lon="7.16871">
        <ele>386.9</ele>
        <time>2023-09-22T16:27:39Z</time>
      </trkpt>
      <trkpt lat="48.69617" lon="7.16853">
        <ele>386.8</ele>
        <time>2023-09-22T16:27:45Z</time>
      </trkpt>
      <trkpt lat="48.69601" lon="7.16837">
        <ele>387.1</ele>
        <time>2023-09-22T16:27:51Z</time>
      </trkpt>
      <trkpt lat="48.69585" lon="7.16819">
        <ele>387.7</ele>
        <time>2023-09-22T16:27:57Z</time>
      </trkpt>
      <trkpt lat="48.69569" lon="7.16802">
        <ele>388.8</ele>
        <time>2023-09-22T16:28:03Z</time>
      </trkpt>
      <trkpt lat="48.69552" lon="7.16785">
        <ele>388.8</ele>
        <time>2023-09-22T16:28:09Z</time>
      </trkpt>
      <trkpt lat="48.69536" lon="7.16771">
        <ele>387.7</ele>
        <time>2023-09-22T16:28:15Z</time>
      </trkpt>
      <trkpt lat="48.6952" lon="7.16752">
        <ele>385.7</ele>
        <time>2023-09-22T16:28:21Z</time>
      </trkpt>
      <trkpt lat="48.69506" lon="7.16732">
        <ele>384.1</ele>
        <time>2023-09-22T16:28:27Z</time>
      </trkpt>
      <trkpt lat="48.69494" lon="7.16708">
        <ele>383.4</ele>
        <time>2023-09-22T16:28:33Z</time>
      </trkpt>
      <trkpt lat="48.69486" lon="7.167">
        <ele>382.2</ele>
        <time>2023-09-22T16:28:37Z</time>
      </trkpt>
      <trkpt lat="48.69482" lon="7.16706">
        <ele>381.6</ele>
        <time>2023-09-22T16:28:39Z</time>
      </trkpt>
      <trkpt lat="48.69478" lon="7.16734">
        <ele>378.7</ele>
        <time>2023-09-22T16:28:47Z</time>
      </trkpt>
      <trkpt lat="48.6948" lon="7.16764">
        <ele>377.1</ele>
        <time>2023-09-22T16:28:55Z</time>
      </trkpt>
      <trkpt lat="48.69484" lon="7.16795">
        <ele>376.6</ele>
        <time>2023-09-22T16:29:02Z</time>
      </trkpt>
      <trkpt lat="48.69485" lon="7.16825">
        <ele>376.5</ele>
        <time>2023-09-22T16:29:09Z</time>
      </trkpt>
      <trkpt lat="48.69474" lon="7.1685">
        <ele>375.3</ele>
        <time>2023-09-22T16:29:16Z</time>
      </trkpt>
      <trkpt lat="48.69465" lon="7.16875">
        <ele>373.6</ele>
        <time>2023-09-22T16:29:23Z</time>
      </trkpt>
      <trkpt lat="48.69459" lon="7.16902">
        <ele>372.2</ele>
        <time>2023-09-22T16:29:31Z</time>
      </trkpt>
      <trkpt lat="48.69464" lon="7.16929">
        <ele>372.8</ele>
        <time>2023-09-22T16:29:39Z</time>
      </trkpt>
      <trkpt lat="48.6947" lon="7.16955">
        <ele>373.2</ele>
        <time>2023-09-22T16:29:47Z</time>
      </trkpt>
      <trkpt lat="48.69477" lon="7.16984">
        <ele>374</ele>
        <time>2023-09-22T16:29:55Z</time>
      </trkpt>
      <trkpt lat="48.69483" lon="7.17012">
        <ele>373.5</ele>
        <time>2023-09-22T16:30:02Z</time>
      </trkpt>
      <trkpt lat="48.69482" lon="7.17043">
        <ele>372.8</ele>
        <time>2023-09-22T16:30:10Z</time>
      </trkpt>
      <trkpt lat="48.69475" lon="7.1707">
        <ele>371.5</ele>
        <time>2023-09-22T16:30:17Z</time>
      </trkpt>
      <trkpt lat="48.69463" lon="7.17093">
        <ele>368.9</ele>
        <time>2023-09-22T16:30:23Z</time>
      </trkpt>
      <trkpt lat="48.6945" lon="7.17116">
        <ele>365.8</ele>
        <time>2023-09-22T16:30:31Z</time>
      </trkpt>
      <trkpt lat="48.69438" lon="7.17137">
        <ele>363.3</ele>
        <time>2023-09-22T16:30:38Z</time>
      </trkpt>
      <trkpt lat="48.69425" lon="7.1716">
        <ele>361.4</ele>
        <time>2023-09-22T16:30:46Z</time>
      </trkpt>
      <trkpt lat="48.6941" lon="7.17178">
        <ele>359.7</ele>
        <time>2023-09-22T16:30:54Z</time>
      </trkpt>
      <trkpt lat="48.69395" lon="7.17195">
        <ele>359.1</ele>
        <time>2023-09-22T16:31:00Z</time>
      </trkpt>
      <trkpt lat="48.69379" lon="7.17208">
        <ele>358.4</ele>
        <time>2023-09-22T16:31:08Z</time>
      </trkpt>
      <trkpt lat="48.69363" lon="7.17222">
        <ele>358.6</ele>
        <time>2023-09-22T16:31:16Z</time>
      </trkpt>
      <trkpt lat="48.69345" lon="7.17232">
        <ele>359.1</ele>
        <time>2023-09-22T16:31:23Z</time>
      </trkpt>
      <trkpt lat="48.69325" lon="7.17242">
        <ele>360.2</ele>
        <time>2023-09-22T16:31:32Z</time>
      </trkpt>
      <trkpt lat="48.69309" lon="7.17255">
        <ele>362.4</ele>
        <time>2023-09-22T16:31:40Z</time>
      </trkpt>
      <trkpt lat="48.69294" lon="7.17268">
        <ele>366.2</ele>
        <time>2023-09-22T16:31:47Z</time>
      </trkpt>
      <trkpt lat="48.69276" lon="7.17277">
        <ele>370.3</ele>
        <time>2023-09-22T16:31:53Z</time>
      </trkpt>
      <trkpt lat="48.6926" lon="7.1729">
        <ele>374.7</ele>
        <time>2023-09-22T16:31:59Z</time>
      </trkpt>
      <trkpt lat="48.69245" lon="7.17306">
        <ele>379.2</ele>
        <time>2023-09-22T16:32:06Z</time>
      </trkpt>
      <trkpt lat="48.69232" lon="7.17328">
        <ele>383.1</ele>
        <time>2023-09-22T16:32:13Z</time>
      </trkpt>
      <trkpt lat="48.69215" lon="7.17346">
        <ele>383.2</ele>
        <time>2023-09-22T16:32:20Z</time>
      </trkpt>
      <trkpt lat="48.69202" lon="7.17368">
        <ele>383.6</ele>
        <time>2023-09-22T16:32:26Z</time>
      </trkpt>
      <trkpt lat="48.69193" lon="7.17394">
        <ele>384.1</ele>
        <time>2023-09-22T16:32:34Z</time>
      </trkpt>
      <trkpt lat="48.69183" lon="7.17418">
        <ele>384.7</ele>
        <time>2023-09-22T16:32:41Z</time>
      </trkpt>
      <trkpt lat="48.69178" lon="7.17448">
        <ele>384.9</ele>
        <time>2023-09-22T16:32:50Z</time>
      </trkpt>
      <trkpt lat="48.69173" lon="7.1748">
        <ele>385.2</ele>
        <time>2023-09-22T16:32:59Z</time>
      </trkpt>
      <trkpt lat="48.69173" lon="7.17508">
        <ele>385.7</ele>
        <time>2023-09-22T16:33:06Z</time>
      </trkpt>
      <trkpt lat="48.69172" lon="7.17535">
        <ele>386.9</ele>
        <time>2023-09-22T16:33:14Z</time>
      </trkpt>
      <trkpt lat="48.69169" lon="7.17563">
        <ele>388.6</ele>
        <time>2023-09-22T16:33:22Z</time>
      </trkpt>
      <trkpt lat="48.69167" lon="7.17593">
        <ele>389.5</ele>
        <time>2023-09-22T16:33:30Z</time>
      </trkpt>
      <trkpt lat="48.6916" lon="7.17621">
        <ele>390.2</ele>
        <time>2023-09-22T16:33:38Z</time>
      </trkpt>
      <trkpt lat="48.69146" lon="7.17645">
        <ele>391</ele>
        <time>2023-09-22T16:33:46Z</time>
      </trkpt>
      <trkpt lat="48.69134" lon="7.17667">
        <ele>391.4</ele>
        <time>2023-09-22T16:33:52Z</time>
      </trkpt>
      <trkpt lat="48.6912" lon="7.1769">
        <ele>391.7</ele>
        <time>2023-09-22T16:33:59Z</time>
      </trkpt>
      <trkpt lat="48.69108" lon="7.17711">
        <ele>391.9</ele>
        <time>2023-09-22T16:34:05Z</time>
      </trkpt>
      <trkpt lat="48.6909" lon="7.17728">
        <ele>392</ele>
        <time>2023-09-22T16:34:13Z</time>
      </trkpt>
      <trkpt lat="48.69075" lon="7.17742">
        <ele>392.1</ele>
        <time>2023-09-22T16:34:20Z</time>
      </trkpt>
      <trkpt lat="48.69059" lon="7.17758">
        <ele>392</ele>
        <time>2023-09-22T16:34:27Z</time>
      </trkpt>
      <trkpt lat="48.69055" lon="7.17763">
        <ele>391.9</ele>
        <time>2023-09-22T16:34:29Z</time>
      </trkpt>
      <trkpt lat="48.69041" lon="7.17782">
        <ele>392.2</ele>
        <time>2023-09-22T16:34:34Z</time>
      </trkpt>
      <trkpt lat="48.69026" lon="7.17802">
        <ele>392.8</ele>
        <time>2023-09-22T16:34:39Z</time>
      </trkpt>
      <trkpt lat="48.69013" lon="7.17823">
        <ele>393.2</ele>
        <time>2023-09-22T16:34:44Z</time>
      </trkpt>
      <trkpt lat="48.69001" lon="7.17846">
        <ele>393.7</ele>
        <time>2023-09-22T16:34:49Z</time>
      </trkpt>
      <trkpt lat="48.68989" lon="7.17867">
        <ele>394.2</ele>
        <time>2023-09-22T16:34:54Z</time>
      </trkpt>
      <trkpt lat="48.68975" lon="7.17889">
        <ele>394.7</ele>
        <time>2023-09-22T16:35:00Z</time>
      </trkpt>
      <trkpt lat="48.68961" lon="7.17913">
        <ele>395.3</ele>
        <time>2023-09-22T16:35:06Z</time>
      </trkpt>
      <trkpt lat="48.6895" lon="7.17935">
        <ele>395.7</ele>
        <time>2023-09-22T16:35:12Z</time>
      </trkpt>
      <trkpt lat="48.68938" lon="7.17958">
        <ele>396.2</ele>
        <time>2023-09-22T16:35:18Z</time>
      </trkpt>
      <trkpt lat="48.68927" lon="7.1798">
        <ele>396.7</ele>
        <time>2023-09-22T16:35:23Z</time>
      </trkpt>
      <trkpt lat="48.68914" lon="7.18">
        <ele>397.2</ele>
        <time>2023-09-22T16:35:29Z</time>
      </trkpt>
      <trkpt lat="48.68901" lon="7.1802">
        <ele>397.7</ele>
        <time>2023-09-22T16:35:35Z</time>
      </trkpt>
      <trkpt lat="48.68888" lon="7.18043">
        <ele>398.2</ele>
        <time>2023-09-22T16:35:41Z</time>
      </trkpt>
      <trkpt lat="48.68878" lon="7.18068">
        <ele>398.7</ele>
        <time>2023-09-22T16:35:47Z</time>
      </trkpt>
      <trkpt lat="48.68872" lon="7.18094">
        <ele>399.1</ele>
        <time>2023-09-22T16:35:53Z</time>
      </trkpt>
      <trkpt lat="48.68864" lon="7.18122">
        <ele>399.7</ele>
        <time>2023-09-22T16:35:59Z</time>
      </trkpt>
      <trkpt lat="48.68863" lon="7.1815">
        <ele>400.1</ele>
        <time>2023-09-22T16:36:05Z</time>
      </trkpt>
      <trkpt lat="48.68861" lon="7.18177">
        <ele>400.6</ele>
        <time>2023-09-22T16:36:11Z</time>
      </trkpt>
      <trkpt lat="48.6886" lon="7.18207">
        <ele>401.1</ele>
        <time>2023-09-22T16:36:18Z</time>
      </trkpt>
      <trkpt lat="48.68862" lon="7.18236">
        <ele>401.6</ele>
        <time>2023-09-22T16:36:23Z</time>
      </trkpt>
      <trkpt lat="48.6887" lon="7.18263">
        <ele>402.1</ele>
        <time>2023-09-22T16:36:27Z</time>
      </trkpt>
      <trkpt lat="48.68878" lon="7.1829">
        <ele>402.6</ele>
        <time>2023-09-22T16:36:32Z</time>
      </trkpt>
      <trkpt lat="48.68883" lon="7.1832">
        <ele>403.1</ele>
        <time>2023-09-22T16:36:38Z</time>
      </trkpt>
      <trkpt lat="48.68887" lon="7.1835">
        <ele>403.7</ele>
        <time>2023-09-22T16:36:43Z</time>
      </trkpt>
      <trkpt lat="48.6889" lon="7.18381">
        <ele>404.2</ele>
        <time>2023-09-22T16:36:48Z</time>
      </trkpt>
      <trkpt lat="48.68897" lon="7.18408">
        <ele>404.7</ele>
        <time>2023-09-22T16:36:53Z</time>
      </trkpt>
      <trkpt lat="48.68905" lon="7.18435">
        <ele>405.2</ele>
        <time>2023-09-22T16:36:58Z</time>
      </trkpt>
      <trkpt lat="48.68916" lon="7.18462">
        <ele>405.7</ele>
        <time>2023-09-22T16:37:04Z</time>
      </trkpt>
      <trkpt lat="48.68927" lon="7.18486">
        <ele>406.2</ele>
        <time>2023-09-22T16:37:09Z</time>
      </trkpt>
      <trkpt lat="48.68946" lon="7.18505">
        <ele>406.8</ele>
        <time>2023-09-22T16:37:13Z</time>
      </trkpt>
      <trkpt lat="48.68961" lon="7.18522">
        <ele>407.3</ele>
        <time>2023-09-22T16:37:17Z</time>
      </trkpt>
      <trkpt lat="48.68974" lon="7.18541">
        <ele>407.7</ele>
        <time>2023-09-22T16:37:21Z</time>
      </trkpt>
      <trkpt lat="48.68989" lon="7.18563">
        <ele>408.3</ele>
        <time>2023-09-22T16:37:26Z</time>
      </trkpt>
      <trkpt lat="48.69005" lon="7.18578">
        <ele>408.8</ele>
        <time>2023-09-22T16:37:31Z</time>
      </trkpt>
      <trkpt lat="48.69021" lon="7.18594">
        <ele>409.3</ele>
        <time>2023-09-22T16:37:36Z</time>
      </trkpt>
      <trkpt lat="48.6904" lon="7.18611">
        <ele>409.8</ele>
        <time>2023-09-22T16:37:41Z</time>
      </trkpt>
      <trkpt lat="48.69058" lon="7.18625">
        <ele>410.3</ele>
        <time>2023-09-22T16:37:46Z</time>
      </trkpt>
      <trkpt lat="48.69076" lon="7.18637">
        <ele>410.9</ele>
        <time>2023-09-22T16:37:51Z</time>
      </trkpt>
      <trkpt lat="48.69095" lon="7.18645">
        <ele>411.4</ele>
        <time>2023-09-22T16:37:56Z</time>
      </trkpt>
      <trkpt lat="48.69109" lon="7.1865">
        <ele>411.7</ele>
        <time>2023-09-22T16:38:00Z</time>
      </trkpt>
      <trkpt lat="48.69125" lon="7.1864">
        <ele>412.1</ele>
        <time>2023-09-22T16:38:08Z</time>
      </trkpt>
      <trkpt lat="48.69126" lon="7.18612">
        <ele>412</ele>
        <time>2023-09-22T16:38:20Z</time>
      </trkpt>
      <trkpt lat="48.6913" lon="7.18582">
        <ele>411.8</ele>
        <time>2023-09-22T16:38:29Z</time>
      </trkpt>
      <trkpt lat="48.69131" lon="7.18551">
        <ele>411.7</ele>
        <time>2023-09-22T16:38:37Z</time>
      </trkpt>
      <trkpt lat="48.69136" lon="7.18522">
        <ele>411.5</ele>
        <time>2023-09-22T16:38:45Z</time>
      </trkpt>
      <trkpt lat="48.69142" lon="7.18492">
        <ele>411.4</ele>
        <time>2023-09-22T16:38:53Z</time>
      </trkpt>
      <trkpt lat="48.69145" lon="7.18466">
        <ele>411.3</ele>
        <time>2023-09-22T16:39:00Z</time>
      </trkpt>
      <trkpt lat="48.69146" lon="7.18438">
        <ele>411.1</ele>
        <time>2023-09-22T16:39:06Z</time>
      </trkpt>
      <trkpt lat="48.69153" lon="7.18412">
        <ele>411</ele>
        <time>2023-09-22T16:39:12Z</time>
      </trkpt>
      <trkpt lat="48.69162" lon="7.18388">
        <ele>410.9</ele>
        <time>2023-09-22T16:39:19Z</time>
      </trkpt>
      <trkpt lat="48.6918" lon="7.18389">
        <ele>408.5</ele>
        <time>2023-09-22T16:39:26Z</time>
      </trkpt>
      <trkpt lat="48.692" lon="7.18389">
        <ele>405.1</ele>
        <time>2023-09-22T16:39:32Z</time>
      </trkpt>
      <trkpt lat="48.6922" lon="7.18393">
        <ele>400.7</ele>
        <time>2023-09-22T16:39:37Z</time>
      </trkpt>
      <trkpt lat="48.69238" lon="7.18396">
        <ele>397.1</ele>
        <time>2023-09-22T16:39:42Z</time>
      </trkpt>
      <trkpt lat="48.69256" lon="7.18405">
        <ele>395.4</ele>
        <time>2023-09-22T16:39:48Z</time>
      </trkpt>
      <trkpt lat="48.69257" lon="7.18409">
        <ele>395.2</ele>
        <time>2023-09-22T16:39:49Z</time>
      </trkpt>
      <trkpt lat="48.69257" lon="7.18436">
        <ele>394.6</ele>
        <time>2023-09-22T16:39:56Z</time>
      </trkpt>
      <trkpt lat="48.69257" lon="7.1844">
        <ele>394.4</ele>
        <time>2023-09-22T16:39:57Z</time>
      </trkpt>
      <trkpt lat="48.69255" lon="7.18474">
        <ele>394.1</ele>
        <time>2023-09-22T16:40:03Z</time>
      </trkpt>
      <trkpt lat="48.69253" lon="7.18503">
        <ele>395.3</ele>
        <time>2023-09-22T16:40:08Z</time>
      </trkpt>
      <trkpt lat="48.69249" lon="7.1853">
        <ele>398</ele>
        <time>2023-09-22T16:40:13Z</time>
      </trkpt>
      <trkpt lat="48.69245" lon="7.18556">
        <ele>401.3</ele>
        <time>2023-09-22T16:40:18Z</time>
      </trkpt>
      <trkpt lat="48.69247" lon="7.18588">
        <ele>404.5</ele>
        <time>2023-09-22T16:40:24Z</time>
      </trkpt>
      <trkpt lat="48.69248" lon="7.18617">
        <ele>406</ele>
        <time>2023-09-22T16:40:29Z</time>
      </trkpt>
      <trkpt lat="48.69249" lon="7.18648">
        <ele>407.3</ele>
        <time>2023-09-22T16:40:34Z</time>
      </trkpt>
      <trkpt lat="48.69257" lon="7.18676">
        <ele>406.7</ele>
        <time>2023-09-22T16:40:39Z</time>
      </trkpt>
      <trkpt lat="48.69272" lon="7.18704">
        <ele>404.2</ele>
        <time>2023-09-22T16:40:44Z</time>
      </trkpt>
      <trkpt lat="48.6928" lon="7.18731">
        <ele>402.1</ele>
        <time>2023-09-22T16:40:48Z</time>
      </trkpt>
      <trkpt lat="48.69282" lon="7.1876">
        <ele>401.7</ele>
        <time>2023-09-22T16:40:52Z</time>
      </trkpt>
      <trkpt lat="48.69283" lon="7.1879">
        <ele>401.2</ele>
        <time>2023-09-22T16:40:56Z</time>
      </trkpt>
      <trkpt lat="48.69287" lon="7.18823">
        <ele>399.6</ele>
        <time>2023-09-22T16:41:00Z</time>
      </trkpt>
      <trkpt lat="48.69293" lon="7.18851">
        <ele>398.5</ele>
        <time>2023-09-22T16:41:04Z</time>
      </trkpt>
      <trkpt lat="48.69295" lon="7.18865">
        <ele>398.1</ele>
        <time>2023-09-22T16:41:06Z</time>
      </trkpt>
      <trkpt lat="48.69299" lon="7.18897">
        <ele>396.7</ele>
        <time>2023-09-22T16:41:10Z</time>
      </trkpt>
      <trkpt lat="48.69304" lon="7.18929">
        <ele>395.9</ele>
        <time>2023-09-22T16:41:15Z</time>
      </trkpt>
      <trkpt lat="48.69312" lon="7.18956">
        <ele>394.3</ele>
        <time>2023-09-22T16:41:19Z</time>
      </trkpt>
      <trkpt lat="48.69314" lon="7.18962">
        <ele>393.2</ele>
        <time>2023-09-22T16:41:20Z</time>
      </trkpt>
      <trkpt lat="48.69321" lon="7.18988">
        <ele>389.4</ele>
        <time>2023-09-22T16:41:25Z</time>
      </trkpt>
      <trkpt lat="48.69326" lon="7.19017">
        <ele>384</ele>
        <time>2023-09-22T16:41:32Z</time>
      </trkpt>
      <trkpt lat="48.69328" lon="7.19048">
        <ele>378.9</ele>
        <time>2023-09-22T16:41:41Z</time>
      </trkpt>
      <trkpt lat="48.69323" lon="7.19078">
        <ele>373.4</ele>
        <time>2023-09-22T16:41:47Z</time>
      </trkpt>
      <trkpt lat="48.69324" lon="7.19106">
        <ele>369.7</ele>
        <time>2023-09-22T16:41:53Z</time>
      </trkpt>
      <trkpt lat="48.69326" lon="7.19137">
        <ele>364.3</ele>
        <time>2023-09-22T16:41:59Z</time>
      </trkpt>
      <trkpt lat="48.69327" lon="7.19166">
        <ele>360.5</ele>
        <time>2023-09-22T16:42:05Z</time>
      </trkpt>
      <trkpt lat="48.69324" lon="7.19193">
        <ele>358.2</ele>
        <time>2023-09-22T16:42:09Z</time>
      </trkpt>
      <trkpt lat="48.69316" lon="7.19222">
        <ele>357.2</ele>
        <time>2023-09-22T16:42:14Z</time>
      </trkpt>
      <trkpt lat="48.69311" lon="7.1925">
        <ele>354</ele>
        <time>2023-09-22T16:42:19Z</time>
      </trkpt>
      <trkpt lat="48.69318" lon="7.19276">
        <ele>350.6</ele>
        <time>2023-09-22T16:42:25Z</time>
      </trkpt>
      <trkpt lat="48.69331" lon="7.19298">
        <ele>345.4</ele>
        <time>2023-09-22T16:42:31Z</time>
      </trkpt>
      <trkpt lat="48.69347" lon="7.1931">
        <ele>336.7</ele>
        <time>2023-09-22T16:42:36Z</time>
      </trkpt>
      <trkpt lat="48.69366" lon="7.19313">
        <ele>328.3</ele>
        <time>2023-09-22T16:42:41Z</time>
      </trkpt>
      <trkpt lat="48.69383" lon="7.19304">
        <ele>322.9</ele>
        <time>2023-09-22T16:42:47Z</time>
      </trkpt>
      <trkpt lat="48.69398" lon="7.19286">
        <ele>321</ele>
        <time>2023-09-22T16:42:53Z</time>
      </trkpt>
      <trkpt lat="48.69411" lon="7.19265">
        <ele>319.9</ele>
        <time>2023-09-22T16:42:59Z</time>
      </trkpt>
      <trkpt lat="48.69424" lon="7.19243">
        <ele>317</ele>
        <time>2023-09-22T16:43:05Z</time>
      </trkpt>
      <trkpt lat="48.69436" lon="7.1922">
        <ele>312.4</ele>
        <time>2023-09-22T16:43:10Z</time>
      </trkpt>
      <trkpt lat="48.6945" lon="7.19198">
        <ele>308.4</ele>
        <time>2023-09-22T16:43:16Z</time>
      </trkpt>
      <trkpt lat="48.69462" lon="7.19176">
        <ele>307.3</ele>
        <time>2023-09-22T16:43:22Z</time>
      </trkpt>
      <trkpt lat="48.69474" lon="7.19153">
        <ele>306.6</ele>
        <time>2023-09-22T16:43:29Z</time>
      </trkpt>
      <trkpt lat="48.69489" lon="7.19131">
        <ele>303.9</ele>
        <time>2023-09-22T16:43:36Z</time>
      </trkpt>
      <trkpt lat="48.69502" lon="7.19111">
        <ele>300.8</ele>
        <time>2023-09-22T16:43:41Z</time>
      </trkpt>
      <trkpt lat="48.69517" lon="7.19088">
        <ele>299.6</ele>
        <time>2023-09-22T16:43:47Z</time>
      </trkpt>
      <trkpt lat="48.6953" lon="7.19068">
        <ele>297</ele>
        <time>2023-09-22T16:43:52Z</time>
      </trkpt>
      <trkpt lat="48.69545" lon="7.19052">
        <ele>293.8</ele>
        <time>2023-09-22T16:43:57Z</time>
      </trkpt>
      <trkpt lat="48.69556" lon="7.19028">
        <ele>293.3</ele>
        <time>2023-09-22T16:44:03Z</time>
      </trkpt>
      <trkpt lat="48.69569" lon="7.19004">
        <ele>291.9</ele>
        <time>2023-09-22T16:44:10Z</time>
      </trkpt>
      <trkpt lat="48.69578" lon="7.18978">
        <ele>293.5</ele>
        <time>2023-09-22T16:44:17Z</time>
      </trkpt>
      <trkpt lat="48.69583" lon="7.18949">
        <ele>296.7</ele>
        <time>2023-09-22T16:44:23Z</time>
      </trkpt>
      <trkpt lat="48.6959" lon="7.18923">
        <ele>296.3</ele>
        <time>2023-09-22T16:44:29Z</time>
      </trkpt>
      <trkpt lat="48.69599" lon="7.18898">
        <ele>296.7</ele>
        <time>2023-09-22T16:44:35Z</time>
      </trkpt>
      <trkpt lat="48.69606" lon="7.1887">
        <ele>297.6</ele>
        <time>2023-09-22T16:44:42Z</time>
      </trkpt>
      <trkpt lat="48.69613" lon="7.18842">
        <ele>298.2</ele>
        <time>2023-09-22T16:44:49Z</time>
      </trkpt>
      <trkpt lat="48.69622" lon="7.18816">
        <ele>298.8</ele>
        <time>2023-09-22T16:44:55Z</time>
      </trkpt>
      <trkpt lat="48.69628" lon="7.18784">
        <ele>303.3</ele>
        <time>2023-09-22T16:45:01Z</time>
      </trkpt>
      <trkpt lat="48.69633" lon="7.18753">
        <ele>305.8</ele>
        <time>2023-09-22T16:45:07Z</time>
      </trkpt>
      <trkpt lat="48.69638" lon="7.18722">
        <ele>306.2</ele>
        <time>2023-09-22T16:45:13Z</time>
      </trkpt>
      <trkpt lat="48.69646" lon="7.18693">
        <ele>305.8</ele>
        <time>2023-09-22T16:45:20Z</time>
      </trkpt>
      <trkpt lat="48.69649" lon="7.18662">
        <ele>306.8</ele>
        <time>2023-09-22T16:45:26Z</time>
      </trkpt>
      <trkpt lat="48.6965" lon="7.18633">
        <ele>308.8</ele>
        <time>2023-09-22T16:45:32Z</time>
      </trkpt>
      <trkpt lat="48.69653" lon="7.18605">
        <ele>311.8</ele>
        <time>2023-09-22T16:45:39Z</time>
      </trkpt>
      <trkpt lat="48.69655" lon="7.18577">
        <ele>315.3</ele>
        <time>2023-09-22T16:45:45Z</time>
      </trkpt>
      <trkpt lat="48.69658" lon="7.18548">
        <ele>319.5</ele>
        <time>2023-09-22T16:45:51Z</time>
      </trkpt>
      <trkpt lat="48.69656" lon="7.18519">
        <ele>321.6</ele>
        <time>2023-09-22T16:45:57Z</time>
      </trkpt>
      <trkpt lat="48.69648" lon="7.18492">
        <ele>323.1</ele>
        <time>2023-09-22T16:46:04Z</time>
      </trkpt>
      <trkpt lat="48.69641" lon="7.18481">
        <ele>322.8</ele>
        <time>2023-09-22T16:46:11Z</time>
      </trkpt>
      <trkpt lat="48.69647" lon="7.18506">
        <ele>322.1</ele>
        <time>2023-09-22T16:46:23Z</time>
      </trkpt>
      <trkpt lat="48.69647" lon="7.18505">
        <ele>322</ele>
        <time>2023-09-22T16:46:24Z</time>
      </trkpt>
      <trkpt lat="48.69646" lon="7.18501">
        <ele>322</ele>
        <time>2023-09-22T16:46:27Z</time>
      </trkpt>
      <trkpt lat="48.69633" lon="7.18478">
        <ele>322.1</ele>
        <time>2023-09-22T16:46:36Z</time>
      </trkpt>
      <trkpt lat="48.69619" lon="7.18459">
        <ele>322.5</ele>
        <time>2023-09-22T16:46:42Z</time>
      </trkpt>
      <trkpt lat="48.69619" lon="7.18431">
        <ele>323.6</ele>
        <time>2023-09-22T16:46:47Z</time>
      </trkpt>
      <trkpt lat="48.69629" lon="7.18403">
        <ele>324.9</ele>
        <time>2023-09-22T16:46:52Z</time>
      </trkpt>
      <trkpt lat="48.69644" lon="7.18384">
        <ele>326.5</ele>
        <time>2023-09-22T16:46:56Z</time>
      </trkpt>
      <trkpt lat="48.6966" lon="7.18363">
        <ele>329.1</ele>
        <time>2023-09-22T16:47:00Z</time>
      </trkpt>
      <trkpt lat="48.69674" lon="7.18344">
        <ele>333.2</ele>
        <time>2023-09-22T16:47:04Z</time>
      </trkpt>
      <trkpt lat="48.69684" lon="7.18317">
        <ele>335.3</ele>
        <time>2023-09-22T16:47:10Z</time>
      </trkpt>
      <trkpt lat="48.69688" lon="7.1829">
        <ele>336.8</ele>
        <time>2023-09-22T16:47:15Z</time>
      </trkpt>
      <trkpt lat="48.69697" lon="7.18263">
        <ele>339.4</ele>
        <time>2023-09-22T16:47:20Z</time>
      </trkpt>
      <trkpt lat="48.69703" lon="7.18236">
        <ele>341.4</ele>
        <time>2023-09-22T16:47:25Z</time>
      </trkpt>
      <trkpt lat="48.69711" lon="7.18207">
        <ele>343.6</ele>
        <time>2023-09-22T16:47:30Z</time>
      </trkpt>
      <trkpt lat="48.6972" lon="7.18182">
        <ele>345.5</ele>
        <time>2023-09-22T16:47:34Z</time>
      </trkpt>
      <trkpt lat="48.69733" lon="7.18157">
        <ele>348.5</ele>
        <time>2023-09-22T16:47:40Z</time>
      </trkpt>
      <trkpt lat="48.69747" lon="7.18134">
        <ele>352.3</ele>
        <time>2023-09-22T16:47:48Z</time>
      </trkpt>
      <trkpt lat="48.69762" lon="7.18109">
        <ele>356.5</ele>
        <time>2023-09-22T16:47:55Z</time>
      </trkpt>
      <trkpt lat="48.69774" lon="7.18082">
        <ele>359.1</ele>
        <time>2023-09-22T16:48:01Z</time>
      </trkpt>
      <trkpt lat="48.69779" lon="7.18052">
        <ele>361.9</ele>
        <time>2023-09-22T16:48:07Z</time>
      </trkpt>
      <trkpt lat="48.69784" lon="7.1802">
        <ele>366.1</ele>
        <time>2023-09-22T16:48:13Z</time>
      </trkpt>
      <trkpt lat="48.69793" lon="7.17994">
        <ele>368.4</ele>
        <time>2023-09-22T16:48:19Z</time>
      </trkpt>
      <trkpt lat="48.69802" lon="7.17967">
        <ele>370.6</ele>
        <time>2023-09-22T16:48:26Z</time>
      </trkpt>
      <trkpt lat="48.69803" lon="7.17938">
        <ele>371.5</ele>
        <time>2023-09-22T16:48:33Z</time>
      </trkpt>
      <trkpt lat="48.69809" lon="7.17911">
        <ele>372.5</ele>
        <time>2023-09-22T16:48:40Z</time>
      </trkpt>
      <trkpt lat="48.69821" lon="7.17885">
        <ele>373.3</ele>
        <time>2023-09-22T16:48:46Z</time>
      </trkpt>
      <trkpt lat="48.69833" lon="7.17862">
        <ele>373.7</ele>
        <time>2023-09-22T16:48:52Z</time>
      </trkpt>
      <trkpt lat="48.69843" lon="7.17837">
        <ele>374.4</ele>
        <time>2023-09-22T16:48:59Z</time>
      </trkpt>
      <trkpt lat="48.69849" lon="7.17808">
        <ele>376.4</ele>
        <time>2023-09-22T16:49:06Z</time>
      </trkpt>
      <trkpt lat="48.69845" lon="7.17779">
        <ele>378.4</ele>
        <time>2023-09-22T16:49:12Z</time>
      </trkpt>
      <trkpt lat="48.69858" lon="7.17759">
        <ele>380.3</ele>
        <time>2023-09-22T16:49:19Z</time>
      </trkpt>
      <trkpt lat="48.69877" lon="7.17767">
        <ele>381.2</ele>
        <time>2023-09-22T16:49:27Z</time>
      </trkpt>
      <trkpt lat="48.69895" lon="7.17782">
        <ele>382.9</ele>
        <time>2023-09-22T16:49:34Z</time>
      </trkpt>
      <trkpt lat="48.69912" lon="7.1779">
        <ele>385.3</ele>
        <time>2023-09-22T16:49:41Z</time>
      </trkpt>
      <trkpt lat="48.6993" lon="7.17781">
        <ele>387.9</ele>
        <time>2023-09-22T16:49:50Z</time>
      </trkpt>
      <trkpt lat="48.69944" lon="7.17758">
        <ele>388.6</ele>
        <time>2023-09-22T16:49:56Z</time>
      </trkpt>
      <trkpt lat="48.69958" lon="7.17735">
        <ele>388.7</ele>
        <time>2023-09-22T16:50:02Z</time>
      </trkpt>
      <trkpt lat="48.69972" lon="7.17713">
        <ele>389.7</ele>
        <time>2023-09-22T16:50:08Z</time>
      </trkpt>
      <trkpt lat="48.69983" lon="7.17691">
        <ele>390.3</ele>
        <time>2023-09-22T16:50:14Z</time>
      </trkpt>
      <trkpt lat="48.69986" lon="7.17679">
        <ele>390</ele>
        <time>2023-09-22T16:50:18Z</time>
      </trkpt>
      <trkpt lat="48.69977" lon="7.17662">
        <ele>389.7</ele>
        <time>2023-09-22T16:50:26Z</time>
      </trkpt>
      <trkpt lat="48.69988" lon="7.17685">
        <ele>389.2</ele>
        <time>2023-09-22T16:50:34Z</time>
      </trkpt>
      <trkpt lat="48.69997" lon="7.17709">
        <ele>388.4</ele>
        <time>2023-09-22T16:50:41Z</time>
      </trkpt>
      <trkpt lat="48.69992" lon="7.17737">
        <ele>387.6</ele>
        <time>2023-09-22T16:50:52Z</time>
      </trkpt>
      <trkpt lat="48.69989" lon="7.17766">
        <ele>387</ele>
        <time>2023-09-22T16:51:00Z</time>
      </trkpt>
      <trkpt lat="48.69989" lon="7.17798">
        <ele>386.6</ele>
        <time>2023-09-22T16:51:07Z</time>
      </trkpt>
      <trkpt lat="48.69993" lon="7.17827">
        <ele>386.3</ele>
        <time>2023-09-22T16:51:14Z</time>
      </trkpt>
      <trkpt lat="48.69999" lon="7.17857">
        <ele>385.9</ele>
        <time>2023-09-22T16:51:21Z</time>
      </trkpt>
      <trkpt lat="48.70011" lon="7.17882">
        <ele>385.7</ele>
        <time>2023-09-22T16:51:27Z</time>
      </trkpt>
      <trkpt lat="48.70024" lon="7.17905">
        <ele>385.5</ele>
        <time>2023-09-22T16:51:33Z</time>
      </trkpt>
      <trkpt lat="48.70031" lon="7.17932">
        <ele>385.4</ele>
        <time>2023-09-22T16:51:40Z</time>
      </trkpt>
      <trkpt lat="48.7004" lon="7.17957">
        <ele>385.3</ele>
        <time>2023-09-22T16:51:46Z</time>
      </trkpt>
      <trkpt lat="48.70047" lon="7.1797">
        <ele>385.2</ele>
        <time>2023-09-22T16:51:50Z</time>
      </trkpt>
      <trkpt lat="48.70067" lon="7.17964">
        <ele>384.1</ele>
        <time>2023-09-22T16:51:55Z</time>
      </trkpt>
      <trkpt lat="48.70085" lon="7.17948">
        <ele>383.6</ele>
        <time>2023-09-22T16:52:01Z</time>
      </trkpt>
      <trkpt lat="48.70099" lon="7.17929">
        <ele>382.8</ele>
        <time>2023-09-22T16:52:07Z</time>
      </trkpt>
      <trkpt lat="48.70114" lon="7.17906">
        <ele>381.7</ele>
        <time>2023-09-22T16:52:14Z</time>
      </trkpt>
      <trkpt lat="48.70125" lon="7.17882">
        <ele>380.5</ele>
        <time>2023-09-22T16:52:20Z</time>
      </trkpt>
      <trkpt lat="48.70132" lon="7.17854">
        <ele>379.3</ele>
        <time>2023-09-22T16:52:27Z</time>
      </trkpt>
      <trkpt lat="48.70137" lon="7.17824">
        <ele>378</ele>
        <time>2023-09-22T16:52:34Z</time>
      </trkpt>
      <trkpt lat="48.7014" lon="7.17796">
        <ele>377</ele>
        <time>2023-09-22T16:52:40Z</time>
      </trkpt>
      <trkpt lat="48.70145" lon="7.17768">
        <ele>375.8</ele>
        <time>2023-09-22T16:52:46Z</time>
      </trkpt>
      <trkpt lat="48.70149" lon="7.1774">
        <ele>374.5</ele>
        <time>2023-09-22T16:52:52Z</time>
      </trkpt>
      <trkpt lat="48.70151" lon="7.17712">
        <ele>373.3</ele>
        <time>2023-09-22T16:52:58Z</time>
      </trkpt>
      <trkpt lat="48.7015" lon="7.17683">
        <ele>371.9</ele>
        <time>2023-09-22T16:53:04Z</time>
      </trkpt>
      <trkpt lat="48.70153" lon="7.17653">
        <ele>370.4</ele>
        <time>2023-09-22T16:53:11Z</time>
      </trkpt>
      <trkpt lat="48.70161" lon="7.17628">
        <ele>369.1</ele>
        <time>2023-09-22T16:53:17Z</time>
      </trkpt>
      <trkpt lat="48.70172" lon="7.17603">
        <ele>367.9</ele>
        <time>2023-09-22T16:53:24Z</time>
      </trkpt>
      <trkpt lat="48.70184" lon="7.17577">
        <ele>366.8</ele>
        <time>2023-09-22T16:53:30Z</time>
      </trkpt>
      <trkpt lat="48.70192" lon="7.17551">
        <ele>365.8</ele>
        <time>2023-09-22T16:53:36Z</time>
      </trkpt>
      <trkpt lat="48.70203" lon="7.17526">
        <ele>364.7</ele>
        <time>2023-09-22T16:53:42Z</time>
      </trkpt>
      <trkpt lat="48.70215" lon="7.17506">
        <ele>363.9</ele>
        <time>2023-09-22T16:53:47Z</time>
      </trkpt>
      <trkpt lat="48.7023" lon="7.17485">
        <ele>363</ele>
        <time>2023-09-22T16:53:54Z</time>
      </trkpt>
      <trkpt lat="48.70246" lon="7.17466">
        <ele>362.2</ele>
        <time>2023-09-22T16:54:00Z</time>
      </trkpt>
      <trkpt lat="48.70262" lon="7.17447">
        <ele>361.1</ele>
        <time>2023-09-22T16:54:06Z</time>
      </trkpt>
      <trkpt lat="48.70276" lon="7.17428">
        <ele>359.7</ele>
        <time>2023-09-22T16:54:12Z</time>
      </trkpt>
      <trkpt lat="48.7029" lon="7.1741">
        <ele>358.4</ele>
        <time>2023-09-22T16:54:18Z</time>
      </trkpt>
      <trkpt lat="48.70307" lon="7.17393">
        <ele>356.9</ele>
        <time>2023-09-22T16:54:24Z</time>
      </trkpt>
      <trkpt lat="48.70325" lon="7.17377">
        <ele>355.6</ele>
        <time>2023-09-22T16:54:30Z</time>
      </trkpt>
      <trkpt lat="48.70343" lon="7.17363">
        <ele>354.4</ele>
        <time>2023-09-22T16:54:36Z</time>
      </trkpt>
      <trkpt lat="48.7036" lon="7.17349">
        <ele>353.3</ele>
        <time>2023-09-22T16:54:42Z</time>
      </trkpt>
      <trkpt lat="48.70377" lon="7.17336">
        <ele>352.4</ele>
        <time>2023-09-22T16:54:48Z</time>
      </trkpt>
      <trkpt lat="48.70393" lon="7.17322">
        <ele>351.3</ele>
        <time>2023-09-22T16:54:54Z</time>
      </trkpt>
      <trkpt lat="48.70409" lon="7.17308">
        <ele>350.1</ele>
        <time>2023-09-22T16:55:00Z</time>
      </trkpt>
      <trkpt lat="48.70424" lon="7.17292">
        <ele>348.9</ele>
        <time>2023-09-22T16:55:06Z</time>
      </trkpt>
      <trkpt lat="48.70441" lon="7.17276">
        <ele>347.2</ele>
        <time>2023-09-22T16:55:13Z</time>
      </trkpt>
      <trkpt lat="48.70458" lon="7.1726">
        <ele>345.4</ele>
        <time>2023-09-22T16:55:19Z</time>
      </trkpt>
      <trkpt lat="48.70475" lon="7.17244">
        <ele>343.5</ele>
        <time>2023-09-22T16:55:25Z</time>
      </trkpt>
      <trkpt lat="48.7049" lon="7.17224">
        <ele>341.3</ele>
        <time>2023-09-22T16:55:32Z</time>
      </trkpt>
      <trkpt lat="48.70508" lon="7.17207">
        <ele>338.1</ele>
        <time>2023-09-22T16:55:39Z</time>
      </trkpt>
      <trkpt lat="48.70525" lon="7.17196">
        <ele>335</ele>
        <time>2023-09-22T16:55:44Z</time>
      </trkpt>
      <trkpt lat="48.70544" lon="7.1719">
        <ele>332.5</ele>
        <time>2023-09-22T16:55:48Z</time>
      </trkpt>
      <trkpt lat="48.70563" lon="7.17187">
        <ele>330.7</ele>
        <time>2023-09-22T16:55:52Z</time>
      </trkpt>
      <trkpt lat="48.70581" lon="7.17188">
        <ele>329.9</ele>
        <time>2023-09-22T16:55:56Z</time>
      </trkpt>
      <trkpt lat="48.70601" lon="7.17191">
        <ele>330</ele>
        <time>2023-09-22T16:56:01Z</time>
      </trkpt>
      <trkpt lat="48.70621" lon="7.17192">
        <ele>330.9</ele>
        <time>2023-09-22T16:56:06Z</time>
      </trkpt>
      <trkpt lat="48.7064" lon="7.17192">
        <ele>332.7</ele>
        <time>2023-09-22T16:56:13Z</time>
      </trkpt>
      <trkpt lat="48.7066" lon="7.17193">
        <ele>334.8</ele>
        <time>2023-09-22T16:56:21Z</time>
      </trkpt>
      <trkpt lat="48.70678" lon="7.17194">
        <ele>336.8</ele>
        <time>2023-09-22T16:56:29Z</time>
      </trkpt>
      <trkpt lat="48.70697" lon="7.17195">
        <ele>338.8</ele>
        <time>2023-09-22T16:56:37Z</time>
      </trkpt>
      <trkpt lat="48.70717" lon="7.17195">
        <ele>341.1</ele>
        <time>2023-09-22T16:56:46Z</time>
      </trkpt>
      <trkpt lat="48.70737" lon="7.17198">
        <ele>343.3</ele>
        <time>2023-09-22T16:56:54Z</time>
      </trkpt>
      <trkpt lat="48.70756" lon="7.17199">
        <ele>345.1</ele>
        <time>2023-09-22T16:57:01Z</time>
      </trkpt>
      <trkpt lat="48.70775" lon="7.17201">
        <ele>346.6</ele>
        <time>2023-09-22T16:57:08Z</time>
      </trkpt>
      <trkpt lat="48.70796" lon="7.17206">
        <ele>348</ele>
        <time>2023-09-22T16:57:15Z</time>
      </trkpt>
      <trkpt lat="48.70816" lon="7.1721">
        <ele>349.3</ele>
        <time>2023-09-22T16:57:22Z</time>
      </trkpt>
      <trkpt lat="48.70835" lon="7.17214">
        <ele>350.4</ele>
        <time>2023-09-22T16:57:29Z</time>
      </trkpt>
      <trkpt lat="48.70854" lon="7.17218">
        <ele>351.5</ele>
        <time>2023-09-22T16:57:36Z</time>
      </trkpt>
      <trkpt lat="48.70875" lon="7.1722">
        <ele>352.2</ele>
        <time>2023-09-22T16:57:43Z</time>
      </trkpt>
      <trkpt lat="48.70893" lon="7.17224">
        <ele>352.5</ele>
        <time>2023-09-22T16:57:49Z</time>
      </trkpt>
      <trkpt lat="48.70911" lon="7.17229">
        <ele>352.7</ele>
        <time>2023-09-22T16:57:55Z</time>
      </trkpt>
      <trkpt lat="48.7093" lon="7.17235">
        <ele>352.7</ele>
        <time>2023-09-22T16:58:01Z</time>
      </trkpt>
      <trkpt lat="48.70949" lon="7.17233">
        <ele>351.6</ele>
        <time>2023-09-22T16:58:08Z</time>
      </trkpt>
      <trkpt lat="48.70958" lon="7.1721">
        <ele>351.4</ele>
        <time>2023-09-22T16:58:15Z</time>
      </trkpt>
      <trkpt lat="48.70963" lon="7.17182">
        <ele>351</ele>
        <time>2023-09-22T16:58:22Z</time>
      </trkpt>
      <trkpt lat="48.70971" lon="7.17152">
        <ele>350.5</ele>
        <time>2023-09-22T16:58:29Z</time>
      </trkpt>
      <trkpt lat="48.70978" lon="7.17126">
        <ele>350.2</ele>
        <time>2023-09-22T16:58:35Z</time>
      </trkpt>
      <trkpt lat="48.70986" lon="7.17101">
        <ele>350</ele>
        <time>2023-09-22T16:58:41Z</time>
      </trkpt>
      <trkpt lat="48.70994" lon="7.17074">
        <ele>349.7</ele>
        <time>2023-09-22T16:58:47Z</time>
      </trkpt>
      <trkpt lat="48.71" lon="7.17047">
        <ele>349.8</ele>
        <time>2023-09-22T16:58:53Z</time>
      </trkpt>
      <trkpt lat="48.71" lon="7.17016">
        <ele>349.4</ele>
        <time>2023-09-22T16:59:00Z</time>
      </trkpt>
      <trkpt lat="48.70996" lon="7.16988">
        <ele>349.2</ele>
        <time>2023-09-22T16:59:06Z</time>
      </trkpt>
      <trkpt lat="48.70993" lon="7.16961">
        <ele>348.8</ele>
        <time>2023-09-22T16:59:12Z</time>
      </trkpt>
      <trkpt lat="48.70991" lon="7.16929">
        <ele>348.2</ele>
        <time>2023-09-22T16:59:19Z</time>
      </trkpt>
      <trkpt lat="48.70988" lon="7.169">
        <ele>347.6</ele>
        <time>2023-09-22T16:59:25Z</time>
      </trkpt>
      <trkpt lat="48.70979" lon="7.16874">
        <ele>347.2</ele>
        <time>2023-09-22T16:59:31Z</time>
      </trkpt>
      <trkpt lat="48.70966" lon="7.16851">
        <ele>346.8</ele>
        <time>2023-09-22T16:59:37Z</time>
      </trkpt>
      <trkpt lat="48.70957" lon="7.16824">
        <ele>346.3</ele>
        <time>2023-09-22T16:59:43Z</time>
      </trkpt>
      <trkpt lat="48.70956" lon="7.16793">
        <ele>345.9</ele>
        <time>2023-09-22T16:59:49Z</time>
      </trkpt>
      <trkpt lat="48.70955" lon="7.16765">
        <ele>345.6</ele>
        <time>2023-09-22T16:59:55Z</time>
      </trkpt>
      <trkpt lat="48.70948" lon="7.1674">
        <ele>345.4</ele>
        <time>2023-09-22T17:00:01Z</time>
      </trkpt>
      <trkpt lat="48.70935" lon="7.16718">
        <ele>345.2</ele>
        <time>2023-09-22T17:00:08Z</time>
      </trkpt>
      <trkpt lat="48.70918" lon="7.16701">
        <ele>345.3</ele>
        <time>2023-09-22T17:00:15Z</time>
      </trkpt>
      <trkpt lat="48.70904" lon="7.16684">
        <ele>345.3</ele>
        <time>2023-09-22T17:00:21Z</time>
      </trkpt>
      <trkpt lat="48.70888" lon="7.16665">
        <ele>345.4</ele>
        <time>2023-09-22T17:00:28Z</time>
      </trkpt>
      <trkpt lat="48.70872" lon="7.16644">
        <ele>345.4</ele>
        <time>2023-09-22T17:00:35Z</time>
      </trkpt>
      <trkpt lat="48.70858" lon="7.16626">
        <ele>345.4</ele>
        <time>2023-09-22T17:00:41Z</time>
      </trkpt>
      <trkpt lat="48.70843" lon="7.16609">
        <ele>345.6</ele>
        <time>2023-09-22T17:00:47Z</time>
      </trkpt>
      <trkpt lat="48.70827" lon="7.16591">
        <ele>345.8</ele>
        <time>2023-09-22T17:00:54Z</time>
      </trkpt>
      <trkpt lat="48.70809" lon="7.16577">
        <ele>345.9</ele>
        <time>2023-09-22T17:01:01Z</time>
      </trkpt>
      <trkpt lat="48.70791" lon="7.16563">
        <ele>346.2</ele>
        <time>2023-09-22T17:01:08Z</time>
      </trkpt>
      <trkpt lat="48.70774" lon="7.16547">
        <ele>346.5</ele>
        <time>2023-09-22T17:01:15Z</time>
      </trkpt>
      <trkpt lat="48.70756" lon="7.1653">
        <ele>346.9</ele>
        <time>2023-09-22T17:01:22Z</time>
      </trkpt>
      <trkpt lat="48.7074" lon="7.16517">
        <ele>347.2</ele>
        <time>2023-09-22T17:01:28Z</time>
      </trkpt>
      <trkpt lat="48.70725" lon="7.16502">
        <ele>347.6</ele>
        <time>2023-09-22T17:01:34Z</time>
      </trkpt>
      <trkpt lat="48.70708" lon="7.16485">
        <ele>348</ele>
        <time>2023-09-22T17:01:41Z</time>
      </trkpt>
      <trkpt lat="48.70692" lon="7.16466">
        <ele>348.3</ele>
        <time>2023-09-22T17:01:48Z</time>
      </trkpt>
      <trkpt lat="48.70676" lon="7.16449">
        <ele>348.3</ele>
        <time>2023-09-22T17:01:54Z</time>
      </trkpt>
      <trkpt lat="48.7066" lon="7.16431">
        <ele>348</ele>
        <time>2023-09-22T17:02:00Z</time>
      </trkpt>
      <trkpt lat="48.70659" lon="7.16427">
        <ele>347.9</ele>
        <time>2023-09-22T17:02:01Z</time>
      </trkpt>
      <trkpt lat="48.70669" lon="7.16399">
        <ele>346.4</ele>
        <time>2023-09-22T17:02:07Z</time>
      </trkpt>
      <trkpt lat="48.7068" lon="7.16378">
        <ele>344.9</ele>
        <time>2023-09-22T17:02:12Z</time>
      </trkpt>
      <trkpt lat="48.70693" lon="7.16358">
        <ele>343.3</ele>
        <time>2023-09-22T17:02:17Z</time>
      </trkpt>
      <trkpt lat="48.70705" lon="7.16337">
        <ele>341.6</ele>
        <time>2023-09-22T17:02:22Z</time>
      </trkpt>
      <trkpt lat="48.70717" lon="7.16316">
        <ele>339.9</ele>
        <time>2023-09-22T17:02:27Z</time>
      </trkpt>
      <trkpt lat="48.70729" lon="7.16294">
        <ele>338.3</ele>
        <time>2023-09-22T17:02:32Z</time>
      </trkpt>
      <trkpt lat="48.70741" lon="7.16272">
        <ele>336.5</ele>
        <time>2023-09-22T17:02:37Z</time>
      </trkpt>
      <trkpt lat="48.70755" lon="7.16249">
        <ele>334.5</ele>
        <time>2023-09-22T17:02:43Z</time>
      </trkpt>
      <trkpt lat="48.70769" lon="7.1623">
        <ele>332.6</ele>
        <time>2023-09-22T17:02:49Z</time>
      </trkpt>
      <trkpt lat="48.70781" lon="7.16208">
        <ele>330.9</ele>
        <time>2023-09-22T17:02:54Z</time>
      </trkpt>
      <trkpt lat="48.70794" lon="7.16189">
        <ele>329.4</ele>
        <time>2023-09-22T17:02:59Z</time>
      </trkpt>
      <trkpt lat="48.70806" lon="7.16168">
        <ele>327.9</ele>
        <time>2023-09-22T17:03:04Z</time>
      </trkpt>
      <trkpt lat="48.70818" lon="7.16148">
        <ele>326.3</ele>
        <time>2023-09-22T17:03:09Z</time>
      </trkpt>
      <trkpt lat="48.70834" lon="7.16131">
        <ele>324.5</ele>
        <time>2023-09-22T17:03:14Z</time>
      </trkpt>
      <trkpt lat="48.70852" lon="7.16133">
        <ele>323.7</ele>
        <time>2023-09-22T17:03:19Z</time>
      </trkpt>
      <trkpt lat="48.70871" lon="7.16135">
        <ele>323</ele>
        <time>2023-09-22T17:03:24Z</time>
      </trkpt>
      <trkpt lat="48.70892" lon="7.16138">
        <ele>322.2</ele>
        <time>2023-09-22T17:03:30Z</time>
      </trkpt>
      <trkpt lat="48.70912" lon="7.1614">
        <ele>321.3</ele>
        <time>2023-09-22T17:03:36Z</time>
      </trkpt>
      <trkpt lat="48.70932" lon="7.16143">
        <ele>320.6</ele>
        <time>2023-09-22T17:03:42Z</time>
      </trkpt>
      <trkpt lat="48.70952" lon="7.16147">
        <ele>319.9</ele>
        <time>2023-09-22T17:03:48Z</time>
      </trkpt>
      <trkpt lat="48.70972" lon="7.16153">
        <ele>319.2</ele>
        <time>2023-09-22T17:03:54Z</time>
      </trkpt>
      <trkpt lat="48.7099" lon="7.16159">
        <ele>318.7</ele>
        <time>2023-09-22T17:03:59Z</time>
      </trkpt>
      <trkpt lat="48.71011" lon="7.16164">
        <ele>318.4</ele>
        <time>2023-09-22T17:04:05Z</time>
      </trkpt>
      <trkpt lat="48.71032" lon="7.16169">
        <ele>318.2</ele>
        <time>2023-09-22T17:04:11Z</time>
      </trkpt>
      <trkpt lat="48.71052" lon="7.16176">
        <ele>318</ele>
        <time>2023-09-22T17:04:17Z</time>
      </trkpt>
      <trkpt lat="48.71072" lon="7.16186">
        <ele>317.9</ele>
        <time>2023-09-22T17:04:23Z</time>
      </trkpt>
      <trkpt lat="48.71089" lon="7.16201">
        <ele>317.7</ele>
        <time>2023-09-22T17:04:29Z</time>
      </trkpt>
      <trkpt lat="48.71104" lon="7.1622">
        <ele>317.5</ele>
        <time>2023-09-22T17:04:35Z</time>
      </trkpt>
      <trkpt lat="48.7112" lon="7.16241">
        <ele>317.2</ele>
        <time>2023-09-22T17:04:41Z</time>
      </trkpt>
      <trkpt lat="48.71135" lon="7.1626">
        <ele>316.9</ele>
        <time>2023-09-22T17:04:47Z</time>
      </trkpt>
      <trkpt lat="48.71151" lon="7.16276">
        <ele>316.2</ele>
        <time>2023-09-22T17:04:54Z</time>
      </trkpt>
    </trkseg>
  </trk>
</gpx>